Time;durP1;ratioP1;P1;durP2;ratioP2;P2;SDS_P1;SDS_P2;PMS_P1;PMS_P2;Temp;Humidity;BMP_temperature;BMP_pressure;BME280_temperature;BME280_humidity;BME280_pressure;Samples;Min_cycle;Max_cycle;Signal;HPM_P1;HPM_P2
2022/07/25 00:00:07;;;;;;;15.40;8.73;;;19.60;65.20;;;;;;5055175;28;20864;-86
2022/07/25 00:02:34;;;;;;;18.07;9.00;;;19.60;65.60;;;;;;5054299;28;20476;-86
2022/07/25 00:05:01;;;;;;;15.60;8.83;;;19.60;67.00;;;;;;5055198;28;20445;-86
2022/07/25 00:07:28;;;;;;;13.63;8.40;;;19.50;68.20;;;;;;5055147;28;20454;-85
2022/07/25 00:09:55;;;;;;;13.87;10.13;;;19.40;69.60;;;;;;5055584;28;20449;-86
2022/07/25 00:12:23;;;;;;;13.40;9.90;;;19.30;69.50;;;;;;5054128;28;20464;-86
2022/07/25 00:14:50;;;;;;;14.47;10.13;;;19.20;70.10;;;;;;5054506;28;20973;-86
2022/07/25 00:17:17;;;;;;;15.77;11.83;;;19.00;71.20;;;;;;5054665;28;20459;-86
2022/07/25 00:19:44;;;;;;;14.40;10.00;;;19.10;72.20;;;;;;5055103;28;20509;-85
2022/07/25 00:22:10;;;;;;;19.93;12.53;;;18.80;72.90;;;;;;5054511;28;20479;-86
2022/07/25 00:24:37;;;;;;;13.90;9.50;;;18.80;74.30;;;;;;5054048;28;20455;-86
2022/07/25 00:27:04;;;;;;;15.87;11.43;;;18.70;73.50;;;;;;5054714;28;20772;-85
2022/07/25 00:29:32;;;;;;;15.10;13.60;;;18.60;74.80;;;;;;5055097;28;20460;-86
2022/07/25 00:31:59;;;;;;;18.27;15.33;;;18.50;76.80;;;;;;5054325;28;20465;-86
2022/07/25 00:34:26;;;;;;;19.83;15.87;;;18.40;77.80;;;;;;5034126;28;20552;-85
2022/07/25 00:36:53;;;;;;;16.50;15.00;;;18.40;77.80;;;;;;5034617;28;20446;-86
2022/07/25 00:39:19;;;;;;;15.87;13.80;;;18.40;77.60;;;;;;5052941;28;20503;-85
2022/07/25 00:41:46;;;;;;;13.97;11.90;;;18.40;77.30;;;;;;5054093;28;20453;-86
2022/07/25 00:44:22;;;;;;;18.97;12.17;;;18.50;76.80;;;;;;5054026;28;20445;-86
2022/07/25 00:46:51;;;;;;;14.10;11.90;;;18.60;76.10;;;;;;5054255;28;20494;-85
2022/07/25 00:49:18;;;;;;;15.03;11.57;;;18.70;75.40;;;;;;5054293;28;20456;-86
2022/07/25 00:51:45;;;;;;;22.70;11.23;;;18.70;74.50;;;;;;5053966;28;20455;-86
2022/07/25 00:54:12;;;;;;;13.47;11.40;;;18.80;74.30;;;;;;5052971;28;20460;-87
2022/07/25 00:56:40;;;;;;;15.83;12.30;;;18.70;74.90;;;;;;5054245;28;20465;-85
2022/07/25 00:59:07;;;;;;;16.33;12.13;;;18.50;74.90;;;;;;5054551;28;20524;-86
2022/07/25 01:01:34;;;;;;;13.83;12.37;;;18.50;75.80;;;;;;5053795;28;20452;-86
2022/07/25 01:04:02;;;;;;;15.83;11.60;;;18.50;76.80;;;;;;5053701;28;21027;-86
2022/07/25 01:06:29;;;;;;;15.63;12.80;;;18.50;76.00;;;;;;5053144;28;20457;-86
2022/07/25 01:08:57;;;;;;;13.10;10.93;;;18.40;76.70;;;;;;5053739;28;20765;-85
2022/07/25 01:11:24;;;;;;;16.10;12.63;;;18.40;76.70;;;;;;5053833;28;20456;-86
2022/07/25 01:13:51;;;;;;;20.60;13.00;;;18.30;76.60;;;;;;5034770;28;20477;-85
2022/07/25 01:16:18;;;;;;;14.93;10.50;;;18.30;78.00;;;;;;5041864;28;20460;-86
2022/07/25 01:18:45;;;;;;;13.47;10.07;;;18.20;77.00;;;;;;5053504;28;20540;-86
2022/07/25 01:21:13;;;;;;;14.80;12.83;;;18.20;77.10;;;;;;5053725;28;20538;-86
2022/07/25 01:23:40;;;;;;;14.47;13.07;;;18.20;77.10;;;;;;5053519;28;20467;-86
2022/07/25 01:26:07;;;;;;;15.27;13.63;;;18.20;78.10;;;;;;5052885;28;20463;-86
2022/07/25 01:28:34;;;;;;;16.40;14.83;;;18.20;78.30;;;;;;5053598;28;20460;-86
2022/07/25 01:31:01;;;;;;;18.40;12.90;;;18.30;78.30;;;;;;5053405;28;20465;-85
2022/07/25 01:33:27;;;;;;;13.20;11.80;;;18.30;77.60;;;;;;5053980;28;20519;-86
2022/07/25 01:35:54;;;;;;;14.03;12.63;;;18.20;77.60;;;;;;5052540;28;21025;-85
2022/07/25 01:38:22;;;;;;;14.83;12.50;;;18.10;78.10;;;;;;5053215;28;20455;-86
2022/07/25 01:40:49;;;;;;;14.17;11.23;;;18.00;77.60;;;;;;5053118;28;20451;-86
2022/07/25 01:43:16;;;;;;;12.77;11.27;;;18.20;77.20;;;;;;5052829;28;20470;-86
2022/07/25 01:45:42;;;;;;;16.63;12.10;;;18.20;77.00;;;;;;5052123;28;20448;-85
2022/07/25 01:48:09;;;;;;;13.07;10.90;;;18.20;76.60;;;;;;5053259;28;20463;-86
2022/07/25 01:50:36;;;;;;;14.87;11.27;;;18.20;77.20;;;;;;5052475;28;20475;-85
2022/07/25 01:53:03;;;;;;;12.77;10.77;;;18.10;76.70;;;;;;5053038;28;20479;-85
2022/07/25 01:55:31;;;;;;;12.80;10.30;;;18.20;77.50;;;;;;5052731;28;20454;-86
2022/07/25 01:57:58;;;;;;;13.43;10.33;;;18.10;77.90;;;;;;5052500;28;20451;-85
2022/07/25 02:00:25;;;;;;;13.33;11.37;;;18.10;78.00;;;;;;5053252;28;20630;-86
2022/07/25 02:03:28;;;;;;;13.10;11.50;;;18.00;78.50;;;;;;5051843;28;20471;-85
2022/07/25 02:05:38;;;;;;;15.87;11.07;;;18.20;78.80;;;;;;5052809;28;20454;-85
2022/07/25 02:08:05;;;;;;;13.20;11.37;;;18.10;78.30;;;;;;5052469;28;20452;-86
2022/07/25 02:10:33;;;;;;;11.83;10.40;;;18.10;79.00;;;;;;5052659;28;20445;-86
2022/07/25 02:13:00;;;;;;;18.50;10.77;;;18.00;77.80;;;;;;5052633;28;20466;-86
2022/07/25 02:15:27;;;;;;;11.03;9.60;;;18.10;77.10;;;;;;5052143;28;20419;-85
2022/07/25 02:17:54;;;;;;;14.43;9.40;;;18.20;76.60;;;;;;5051575;28;20478;-85
2022/07/25 02:20:21;;;;;;;16.47;10.93;;;18.20;76.50;;;;;;5053070;28;20412;-86
2022/07/25 02:22:47;;;;;;;13.20;10.63;;;18.00;76.30;;;;;;5052598;28;20468;-86
2022/07/25 02:25:14;;;;;;;13.67;10.10;;;18.10;77.00;;;;;;5051514;28;20963;-86
2022/07/25 02:27:42;;;;;;;11.30;10.10;;;18.20;76.50;;;;;;5051951;28;20455;-86
2022/07/25 02:30:10;;;;;;;11.43;8.73;;;18.10;76.40;;;;;;5051974;28;21061;-85
2022/07/25 02:32:36;;;;;;;14.30;8.87;;;18.00;77.20;;;;;;5052135;28;20463;-86
2022/07/25 02:35:04;;;;;;;13.30;9.70;;;18.00;76.30;;;;;;5051695;28;20538;-86
2022/07/25 02:37:31;;;;;;;12.20;10.20;;;17.90;76.30;;;;;;5052883;28;20452;-86
2022/07/25 02:39:57;;;;;;;15.60;11.47;;;17.80;77.40;;;;;;5052352;28;20450;-86
2022/07/25 02:42:24;;;;;;;13.13;9.90;;;18.00;77.60;;;;;;5051488;28;20474;-86
2022/07/25 02:44:52;;;;;;;17.93;10.00;;;17.80;76.90;;;;;;5051344;28;20452;-85
2022/07/25 02:47:19;;;;;;;16.20;10.33;;;17.80;76.80;;;;;;5051947;28;20484;-86
2022/07/25 02:49:46;;;;;;;14.10;11.27;;;17.80;77.80;;;;;;5051723;28;20452;-85
2022/07/25 02:52:12;;;;;;;12.47;10.20;;;17.70;77.00;;;;;;5051980;28;20471;-86
2022/07/25 02:54:39;;;;;;;14.60;10.07;;;17.80;76.20;;;;;;5051946;28;20479;-85
2022/07/25 02:57:06;;;;;;;10.63;8.40;;;17.70;76.10;;;;;;5051217;28;20451;-85
2022/07/25 02:59:33;;;;;;;11.40;8.90;;;17.70;76.00;;;;;;5052458;28;20523;-85
2022/07/25 03:02:01;;;;;;;12.40;10.23;;;17.70;76.10;;;;;;5051365;28;21042;-85
2022/07/25 03:04:29;;;;;;;12.33;9.63;;;17.60;76.60;;;;;;5051204;28;20452;-86
2022/07/25 03:06:56;;;;;;;12.73;9.17;;;17.60;76.60;;;;;;5051807;28;20519;-85
2022/07/25 03:09:23;;;;;;;14.20;9.43;;;17.60;76.10;;;;;;5052069;28;20454;-85
2022/07/25 03:11:50;;;;;;;12.40;10.20;;;17.70;76.60;;;;;;5051726;28;20491;-86
2022/07/25 03:14:17;;;;;;;13.67;9.50;;;17.70;76.50;;;;;;5051227;28;20471;-86
2022/07/25 03:16:44;;;;;;;13.63;10.97;;;17.60;76.80;;;;;;5051515;28;20458;-86
2022/07/25 03:19:13;;;;;;;13.30;11.20;;;17.60;76.70;;;;;;5051537;28;20461;-85
2022/07/25 03:21:40;;;;;;;13.70;11.63;;;17.60;77.20;;;;;;5051228;28;20452;-86
2022/07/25 03:24:07;;;;;;;14.43;10.80;;;17.50;78.20;;;;;;5051231;28;20445;-86
2022/07/25 03:26:34;;;;;;;16.30;11.53;;;17.60;77.60;;;;;;5031719;28;20453;-86
2022/07/25 03:29:00;;;;;;;13.17;10.03;;;17.60;78.10;;;;;;5031108;28;20454;-86
2022/07/25 03:31:28;;;;;;;14.70;9.20;;;17.40;76.70;;;;;;5050430;28;20448;-85
2022/07/25 03:33:55;;;;;;;13.70;9.60;;;17.40;76.80;;;;;;5051397;28;20522;-84
2022/07/25 03:36:23;;;;;;;12.20;10.27;;;17.40;76.00;;;;;;5051380;28;20451;-86
2022/07/25 03:38:50;;;;;;;14.77;11.07;;;17.40;76.40;;;;;;5051674;28;20534;-86
2022/07/25 03:41:17;;;;;;;14.17;11.57;;;17.40;76.80;;;;;;5050822;28;20454;-86
2022/07/25 03:43:44;;;;;;;13.17;11.30;;;17.50;77.90;;;;;;5051250;28;20448;-86
2022/07/25 03:46:10;;;;;;;15.30;12.20;;;17.40;78.30;;;;;;5050786;28;20443;-86
2022/07/25 03:48:37;;;;;;;13.97;10.60;;;17.40;78.00;;;;;;5051564;28;20461;-85
2022/07/25 03:51:15;;;;;;;16.00;11.03;;;17.40;77.60;;;;;;5046140;28;20453;-88
2022/07/25 03:54:02;;;;;;;13.40;12.00;;;17.40;76.40;;;;;;5039787;28;20498;-85
2022/07/25 03:56:28;;;;;;;14.03;12.50;;;17.40;78.00;;;;;;5044899;28;20561;-84
2022/07/25 03:59:02;;;;;;;17.27;11.30;;;17.40;77.90;;;;;;5041464;28;20457;-84
2022/07/25 04:01:31;;;;;;;14.13;12.60;;;17.30;77.20;;;;;;5029521;28;20551;-83
2022/07/25 04:03:59;;;;;;;20.17;13.40;;;17.50;78.20;;;;;;5033434;28;20460;-84
2022/07/25 04:06:26;;;;;;;13.70;9.63;;;17.50;78.30;;;;;;5034329;28;20458;-84
2022/07/25 04:08:57;;;;;;;12.60;9.80;;;17.70;76.10;;;;;;5033698;28;21018;-84
2022/07/25 04:11:24;;;;;;;18.60;14.60;;;17.80;74.90;;;;;;5031705;28;20451;-84
2022/07/25 04:13:54;;;;;;;18.70;11.43;;;17.90;73.80;;;;;;5038800;28;20472;-83
2022/07/25 04:16:26;;;;;;;14.77;11.40;;;17.80;73.30;;;;;;5034275;28;20836;-84
2022/07/25 04:19:07;;;;;;;14.70;9.27;;;18.10;73.60;;;;;;5033431;28;20454;-84
2022/07/25 04:21:34;;;;;;;16.40;9.60;;;18.10;72.60;;;;;;5032062;28;20459;-84
2022/07/25 04:24:02;;;;;;;10.93;8.80;;;18.20;72.20;;;;;;5036212;28;20489;-85
2022/07/25 04:26:29;;;;;;;17.30;9.17;;;18.30;71.40;;;;;;5038035;28;20451;-84
2022/07/25 04:29:02;;;;;;;11.60;9.27;;;18.30;71.00;;;;;;5037603;28;20451;-83
2022/07/25 04:31:31;;;;;;;14.17;10.13;;;18.50;71.00;;;;;;5040874;28;20502;-87
2022/07/25 04:34:02;;;;;;;13.83;8.60;;;18.50;72.70;;;;;;5040656;28;20504;-84
2022/07/25 04:36:41;;;;;;;10.87;8.03;;;18.70;71.40;;;;;;5040803;28;20507;-84
2022/07/25 04:39:28;;;;;;;10.70;7.80;;;18.80;70.50;;;;;;5041699;28;21059;-84
2022/07/25 04:42:00;;;;;;;12.43;9.40;;;18.90;69.10;;;;;;5043000;28;20504;-84
2022/07/25 04:44:27;;;;;;;16.77;12.10;;;19.00;69.20;;;;;;5046019;28;20446;-85
2022/07/25 04:46:54;;;;;;;11.37;9.00;;;19.10;68.90;;;;;;5047749;28;20451;-85
2022/07/25 04:49:21;;;;;;;11.33;9.13;;;19.20;68.70;;;;;;5045411;28;20459;-85
2022/07/25 04:51:47;;;;;;;12.20;8.50;;;19.30;68.50;;;;;;5046705;28;20459;-85
2022/07/25 04:54:15;;;;;;;11.53;7.60;;;19.50;68.30;;;;;;5046134;28;20474;-85
2022/07/25 04:56:42;;;;;;;15.83;8.67;;;19.40;69.20;;;;;;5048071;28;20697;-84
2022/07/25 04:59:09;;;;;;;11.50;8.17;;;19.50;69.60;;;;;;5048558;28;20456;-85
2022/07/25 05:01:36;;;;;;;14.40;9.53;;;19.50;69.60;;;;;;5049072;28;20455;-85
2022/07/25 05:04:02;;;;;;;19.83;9.70;;;19.50;69.60;;;;;;5048638;28;20454;-85
2022/07/25 05:06:29;;;;;;;12.43;8.20;;;19.60;69.70;;;;;;5048607;28;20837;-85
2022/07/25 05:09:00;;;;;;;14.77;8.97;;;19.70;66.90;;;;;;5046536;28;20541;-86
2022/07/25 05:11:28;;;;;;;12.17;8.40;;;19.90;65.90;;;;;;5045713;28;20452;-85
2022/07/25 05:13:55;;;;;;;10.30;7.77;;;20.00;63.90;;;;;;5044739;28;20448;-85
2022/07/25 05:16:23;;;;;;;8.87;6.63;;;20.20;62.10;;;;;;5045611;28;20806;-86
2022/07/25 05:18:50;;;;;;;15.37;8.70;;;20.30;62.10;;;;;;5048241;28;20465;-85
2022/07/25 05:21:17;;;;;;;11.63;8.07;;;20.50;61.20;;;;;;5048175;28;20465;-85
2022/07/25 05:23:43;;;;;;;10.93;7.80;;;20.60;61.20;;;;;;5047282;28;20481;-86
2022/07/25 05:26:10;;;;;;;10.90;7.30;;;20.70;59.80;;;;;;5047271;28;20452;-86
2022/07/25 05:28:40;;;;;;;9.90;7.30;;;20.70;59.20;;;;;;5045431;28;20445;-87
2022/07/25 05:31:09;;;;;;;11.50;8.00;;;21.00;59.80;;;;;;5044394;28;20462;-85
2022/07/25 05:33:36;;;;;;;10.40;7.40;;;20.90;59.80;;;;;;5046387;28;20474;-86
2022/07/25 05:36:15;;;;;;;10.93;7.30;;;21.00;59.80;;;;;;5046676;28;20555;-87
2022/07/25 05:38:42;;;;;;;13.93;7.77;;;21.00;59.40;;;;;;5048467;28;20450;-84
2022/07/25 05:41:09;;;;;;;11.93;7.80;;;21.10;58.90;;;;;;5043989;28;20481;-85
2022/07/25 05:43:38;;;;;;;10.10;7.27;;;21.20;58.40;;;;;;5042422;28;20492;-85
2022/07/25 05:46:07;;;;;;;16.57;7.20;;;21.30;57.40;;;;;;5047220;28;20541;-86
2022/07/25 05:48:34;;;;;;;14.73;8.63;;;21.70;56.60;;;;;;5048020;28;20861;-87
2022/07/25 05:51:01;;;;;;;10.17;6.60;;;22.00;55.10;;;;;;5049558;28;20529;-87
2022/07/25 05:53:28;;;;;;;12.23;7.70;;;22.60;55.00;;;;;;5048626;28;20476;-88
2022/07/25 05:55:55;;;;;;;9.10;6.57;;;23.20;51.50;;;;;;5045965;28;20465;-85
2022/07/25 05:58:25;;;;;;;9.90;6.50;;;23.90;49.50;;;;;;5047087;28;20450;-84
2022/07/25 06:00:53;;;;;;;11.07;6.87;;;24.00;48.00;;;;;;5044178;28;20465;-84
2022/07/25 06:03:32;;;;;;;9.50;6.40;;;24.40;47.60;;;;;;5043600;28;20506;-84
2022/07/25 06:06:00;;;;;;;10.00;6.50;;;24.80;46.20;;;;;;5042909;28;20454;-84
2022/07/25 06:08:27;;;;;;;9.97;7.47;;;24.60;41.90;;;;;;5043204;28;20519;-84
2022/07/25 06:11:19;;;;;;;9.03;6.53;;;24.60;42.10;;;;;;5043260;28;20458;-84
2022/07/25 06:14:11;;;;;;;14.73;7.70;;;24.60;41.60;;;;;;5031294;28;20526;-84
2022/07/25 06:16:47;;;;;;;11.40;7.00;;;24.50;42.40;;;;;;5045190;28;20519;-83
2022/07/25 06:19:16;;;;;;;10.03;7.10;;;24.60;43.10;;;;;;5048198;28;20475;-85
2022/07/25 06:21:46;;;;;;;9.03;6.10;;;24.70;42.30;;;;;;5045244;28;20459;-84
2022/07/25 06:24:12;;;;;;;10.00;6.93;;;25.00;42.50;;;;;;5044967;28;20452;-84
2022/07/25 06:26:39;;;;;;;9.97;6.60;;;24.90;39.90;;;;;;5044874;28;20480;-85
2022/07/25 06:29:08;;;;;;;10.53;7.07;;;25.40;38.70;;;;;;5046751;28;20449;-84
2022/07/25 06:34:17;;;;;;;7.83;5.70;;;25.60;36.00;;;;;;5042945;28;20448;-84
2022/07/25 06:36:44;;;;;;;9.70;6.23;;;25.30;33.10;;;;;;5038407;28;20535;-84
2022/07/25 06:39:11;;;;;;;9.57;6.50;;;25.40;31.80;;;;;;5045943;28;20480;-84
2022/07/25 06:41:38;;;;;;;9.80;6.23;;;25.40;30.50;;;;;;5043852;28;20430;-83
2022/07/25 06:44:05;;;;;;;8.87;5.80;;;25.40;30.90;;;;;;5041858;28;20896;-83
2022/07/25 06:46:32;;;;;;;12.93;6.60;;;25.40;30.00;;;;;;5040006;28;20444;-81
2022/07/25 06:48:59;;;;;;;10.87;7.27;;;25.40;30.10;;;;;;5037471;28;20448;-81
2022/07/25 06:51:27;;;;;;;8.83;6.97;;;25.50;31.00;;;;;;5037893;28;20460;-81
2022/07/25 06:53:55;;;;;;;11.70;7.13;;;25.70;29.40;;;;;;5037934;28;20458;-81
2022/07/25 06:56:22;;;;;;;11.50;6.07;;;26.10;29.00;;;;;;5038771;28;21034;-82
2022/07/25 06:58:49;;;;;;;12.63;6.20;;;26.10;28.50;;;;;;5038496;28;20452;-81
2022/07/25 07:01:15;;;;;;;9.37;6.17;;;26.10;27.50;;;;;;5039578;28;20456;-81
2022/07/25 07:03:42;;;;;;;10.67;7.10;;;26.10;27.10;;;;;;5038377;28;20487;-81
2022/07/25 07:06:09;;;;;;;10.20;6.50;;;26.40;26.80;;;;;;5024930;28;20442;-82
2022/07/25 07:08:38;;;;;;;9.10;6.00;;;26.30;26.40;;;;;;5034921;28;20423;-79
2022/07/25 07:11:06;;;;;;;9.67;5.80;;;26.40;25.80;;;;;;5038087;28;20459;-80
2022/07/25 07:13:59;;;;;;;9.30;5.60;;;26.50;25.20;;;;;;5030497;28;20472;-81
2022/07/25 07:16:26;;;;;;;10.97;5.73;;;26.70;24.20;;;;;;5042414;28;20478;-80
2022/07/25 07:18:53;;;;;;;13.60;6.47;;;26.70;24.20;;;;;;5038603;28;21022;-81
2022/07/25 07:21:50;;;;;;;7.90;6.10;;;26.90;23.50;;;;;;5038212;28;20448;-81
2022/07/25 07:24:27;;;;;;;10.90;6.27;;;27.20;24.50;;;;;;5037942;28;20459;-80
2022/07/25 07:26:55;;;;;;;10.33;6.20;;;27.00;21.80;;;;;;5038230;28;20452;-81
2022/07/25 07:29:40;;;;;;;10.70;6.97;;;27.50;21.30;;;;;;5038648;28;20825;-84
2022/07/25 07:32:07;;;;;;;8.63;5.67;;;27.70;22.40;;;;;;5042874;28;20476;-85
2022/07/25 07:34:34;;;;;;;8.70;5.80;;;27.80;20.90;;;;;;5047410;28;20452;-86
2022/07/25 07:37:02;;;;;;;10.93;6.50;;;27.90;20.30;;;;;;5047156;28;20451;-85
2022/07/25 07:39:30;;;;;;;11.83;6.47;;;28.60;19.40;;;;;;5046116;28;20452;-86
2022/07/25 07:41:57;;;;;;;9.37;6.30;;;28.60;17.70;;;;;;5046443;28;20491;-85
2022/07/25 07:44:24;;;;;;;12.47;6.37;;;28.80;16.40;;;;;;5045581;28;20444;-86
2022/07/25 07:46:51;;;;;;;8.90;5.97;;;29.00;17.80;;;;;;5046532;28;20456;-85
2022/07/25 07:49:21;;;;;;;8.63;6.27;;;29.20;18.10;;;;;;5047617;28;20456;-84
2022/07/25 07:51:53;;;;;;;13.17;6.83;;;29.40;18.20;;;;;;5047827;28;20456;-83
2022/07/25 07:57:07;;;;;;;9.93;7.27;;;29.30;14.50;;;;;;5047196;28;20458;-84
2022/07/25 07:59:33;;;;;;;12.83;5.80;;;29.10;13.50;;;;;;5046527;28;20418;-84
2022/07/25 08:02:00;;;;;;;9.47;6.63;;;28.90;13.70;;;;;;5046371;28;20475;-82
2022/07/25 08:04:27;;;;;;;10.90;5.90;;;29.00;12.80;;;;;;5045923;28;20426;-84
2022/07/25 08:06:54;;;;;;;12.33;6.80;;;28.70;14.50;;;;;;5045867;28;20448;-83
2022/07/25 08:09:26;;;;;;;9.87;5.87;;;28.70;13.80;;;;;;5046257;28;20455;-83
2022/07/25 08:12:03;;;;;;;10.20;6.17;;;28.70;14.10;;;;;;5045541;28;20468;-83
2022/07/25 08:14:33;;;;;;;13.33;6.83;;;28.40;13.10;;;;;;5045043;28;20451;-84
2022/07/25 08:17:00;;;;;;;10.33;6.17;;;28.50;15.60;;;;;;5048235;28;20448;-84
2022/07/25 08:19:26;;;;;;;12.97;6.23;;;28.00;15.40;;;;;;5049089;28;20569;-84
2022/07/25 08:21:53;;;;;;;10.07;5.33;;;27.90;16.30;;;;;;5049391;28;20449;-83
2022/07/25 08:24:20;;;;;;;15.03;6.60;;;27.50;16.40;;;;;;5049269;28;20471;-84
2022/07/25 08:26:47;;;;;;;11.07;6.60;;;27.50;17.20;;;;;;5048336;28;20411;-83
2022/07/25 08:29:13;;;;;;;9.90;6.70;;;27.20;17.00;;;;;;5049012;28;20922;-82
2022/07/25 08:31:41;;;;;;;9.07;6.60;;;27.10;17.50;;;;;;5049576;28;20830;-83
2022/07/25 08:34:08;;;;;;;10.10;6.40;;;27.10;16.10;;;;;;5048511;28;20453;-83
2022/07/25 08:36:35;;;;;;;11.13;7.30;;;27.10;16.70;;;;;;5049038;28;20447;-83
2022/07/25 08:39:04;;;;;;;16.43;6.80;;;27.20;17.00;;;;;;5048771;28;20434;-84
2022/07/25 08:41:42;;;;;;;9.87;6.57;;;27.30;16.20;;;;;;5049600;28;20465;-85
2022/07/25 08:44:15;;;;;;;13.33;6.40;;;27.10;15.60;;;;;;5049080;28;20530;-84
2022/07/25 08:46:44;;;;;;;10.63;6.77;;;27.10;16.30;;;;;;5049356;28;20463;-85
2022/07/25 08:49:11;;;;;;;11.03;6.17;;;26.80;16.80;;;;;;5048752;28;20456;-84
2022/07/25 08:51:39;;;;;;;9.17;6.73;;;26.60;17.50;;;;;;5048788;28;20486;-85
2022/07/25 08:54:06;;;;;;;10.73;6.53;;;26.70;16.70;;;;;;5048050;28;20454;-83
2022/07/25 08:56:35;;;;;;;11.17;6.37;;;26.90;16.80;;;;;;5048365;28;20472;-84
2022/07/25 08:59:02;;;;;;;10.47;6.27;;;27.10;16.90;;;;;;5047518;28;20482;-85
2022/07/25 09:01:29;;;;;;;12.57;5.30;;;27.30;17.00;;;;;;5048440;28;20800;-85
2022/07/25 09:03:57;;;;;;;8.30;6.13;;;27.10;15.50;;;;;;5048672;28;20824;-85
2022/07/25 09:06:24;;;;;;;12.65;6.30;;;28.00;13.80;;;;;;5042706;28;20439;-82
2022/07/25 09:08:56;;;;;;;9.07;5.80;;;28.50;12.50;;;;;;5040127;28;20193;-81
2022/07/25 09:11:31;;;;;;;9.43;6.67;;;28.30;13.20;;;;;;5040385;28;20476;-81
2022/07/25 09:14:02;;;;;;;10.20;5.80;;;28.90;10.50;;;;;;5040276;28;20925;-81
2022/07/25 09:16:30;;;;;;;10.20;5.90;;;29.20;10.10;;;;;;5039009;28;20575;-81
2022/07/25 09:19:11;;;;;;;15.27;6.43;;;29.80;9.10;;;;;;5022290;28;20427;-81
2022/07/25 09:21:39;;;;;;;9.83;6.00;;;30.00;8.40;;;;;;5019341;28;20422;-81
2022/07/25 09:24:11;;;;;;;10.40;5.20;;;30.60;6.50;;;;;;5019224;28;20515;-81
2022/07/25 09:26:45;;;;;;;11.87;6.60;;;30.60;4.30;;;;;;5019336;28;20488;-81
2022/07/25 09:29:21;;;;;;;17.60;6.87;;;29.60;5.90;;;;;;5020277;28;20955;-81
2022/07/25 09:31:48;;;;;;;12.83;7.10;;;29.20;8.10;;;;;;5019047;28;20435;-81
2022/07/25 09:34:29;;;;;;;12.30;7.30;;;28.50;10.00;;;;;;5018800;28;20452;-80
2022/07/25 09:36:57;;;;;;;9.93;6.50;;;28.40;10.00;;;;;;5018851;28;20485;-81
2022/07/25 09:39:37;;;;;;;10.20;6.63;;;28.00;12.70;;;;;;5019130;28;20453;-81
2022/07/25 09:42:14;;;;;;;13.53;7.80;;;27.90;12.40;;;;;;5019082;28;20458;-80
2022/07/25 09:44:41;;;;;;;9.80;6.07;;;27.70;13.50;;;;;;5019173;28;20456;-81
2022/07/25 09:47:12;;;;;;;9.73;6.20;;;27.40;13.80;;;;;;5019962;28;20460;-81
2022/07/25 09:49:43;;;;;;;13.43;6.43;;;26.90;13.80;;;;;;5019535;28;20457;-84
2022/07/25 09:52:10;;;;;;;11.60;6.73;;;26.40;15.60;;;;;;5019619;28;20473;-82
2022/07/25 09:54:38;;;;;;;9.03;6.00;;;26.00;16.30;;;;;;5019779;28;20464;-82
2022/07/25 09:57:05;;;;;;;8.80;5.60;;;25.70;17.90;;;;;;5018586;28;20458;-81
2022/07/25 09:59:36;;;;;;;8.20;5.50;;;25.40;20.20;;;;;;5018811;28;20475;-81
2022/07/25 10:02:08;;;;;;;10.50;6.80;;;23.50;69.50;;;;;;5017216;28;20448;-80
2022/07/25 10:04:58;;;;;;;9.47;6.50;;;22.30;77.90;;;;;;5016331;28;20466;-81
2022/07/25 10:07:39;;;;;;;10.70;6.40;;;22.20;63.30;;;;;;5016263;28;20538;-80
2022/07/25 10:10:08;;;;;;;13.70;6.63;;;22.50;55.60;;;;;;5015594;28;20456;-81
2022/07/25 10:12:40;;;;;;;11.20;6.67;;;22.60;55.70;;;;;;5016006;28;20490;-80
2022/07/25 10:15:20;;;;;;;12.30;6.10;;;22.80;50.70;;;;;;5014984;28;20472;-83
2022/07/25 10:17:51;;;;;;;13.40;6.40;;;22.90;54.40;;;;;;5016077;28;20509;-80
2022/07/25 10:20:28;;;;;;;10.80;6.00;;;22.90;53.00;;;;;;5015890;28;20453;-79
2022/07/25 10:22:54;;;;;;;13.83;6.97;;;23.00;49.70;;;;;;5014619;28;20477;-79
2022/07/25 10:25:27;;;;;;;8.57;5.27;;;23.20;49.40;;;;;;5015880;28;21048;-78
2022/07/25 10:28:02;;;;;;;8.67;4.87;;;23.50;46.00;;;;;;5014481;28;20453;-79
2022/07/25 10:30:38;;;;;;;9.30;5.30;;;23.70;43.80;;;;;;5015274;28;20883;-79
2022/07/25 10:33:31;;;;;;;11.17;5.60;;;24.20;37.70;;;;;;5013912;28;20990;-79
2022/07/25 10:36:29;;;;;;;11.20;4.63;;;24.70;39.70;;;;;;5014798;28;20477;-79
2022/07/25 10:39:20;;;;;;;10.23;4.30;;;25.40;35.50;;;;;;5014029;28;20456;-83
2022/07/25 10:45:34;;;;;;;8.03;4.70;;;26.70;28.10;;;;;;5016706;28;20483;-83
2022/07/25 10:48:17;;;;;;;13.87;4.67;;;27.00;22.50;;;;;;4985288;28;20448;-80
2022/07/25 10:51:30;;;;;;;8.40;4.73;;;27.70;21.80;;;;;;5015013;28;20957;-80
2022/07/25 10:57:38;;;;;;;10.50;5.57;;;29.10;11.60;;;;;;4977666;28;20567;-81
2022/07/25 11:00:20;;;;;;;6.90;4.00;;;29.10;7.30;;;;;;5015446;28;20551;-80
2022/07/25 11:03:02;;;;;;;11.07;4.23;;;29.50;6.50;;;;;;5015085;28;20505;-81
2022/07/25 11:09:13;;;;;;;10.43;4.10;;;28.80;4.10;;;;;;5011846;28;20456;-81
2022/07/25 11:12:41;;;;;;;8.53;3.67;;;28.80;6.40;;;;;;5014580;28;20874;-81
2022/07/25 11:15:41;;;;;;;7.73;4.00;;;28.60;5.60;;;;;;5014449;28;20467;-80
2022/07/25 11:18:48;;;;;;;8.00;3.63;;;28.70;5.50;;;;;;5015315;28;20512;-80
2022/07/25 11:21:33;;;;;;;6.50;3.90;;;28.40;3.90;;;;;;5015128;28;20519;-80
2022/07/25 11:24:36;;;;;;;5.33;2.93;;;28.50;7.60;;;;;;5015038;28;20551;-79
2022/07/25 11:27:32;;;;;;;7.17;3.90;;;28.60;7.00;;;;;;4986185;28;20441;-81
2022/07/25 11:42:01;;;;;;;5.90;3.47;;;29.20;2.60;;;;;;5010414;28;21402;-81
2022/07/25 11:44:55;;;;;;;6.83;4.00;;;29.10;1.00;;;;;;5014558;28;20456;-80
2022/07/25 11:47:50;;;;;;;7.00;3.80;;;29.00;2.40;;;;;;5014819;28;20448;-80
2022/07/25 11:50:48;;;;;;;8.23;3.87;;;29.20;4.10;;;;;;5016079;28;20510;-80
2022/07/25 11:54:03;;;;;;;9.30;4.23;;;30.30;3.20;;;;;;5019058;28;20484;-81
2022/07/25 11:57:11;;;;;;;;;;;;;;;;;;;;;
2022/07/25 12:00:11;;;;;;;12.07;4.63;;;30.00;1.00;;;;;;5018715;28;20546;-81
2022/07/25 12:02:49;;;;;;;11.40;4.40;;;29.60;1.00;;;;;;5018536;28;20458;-80
2022/07/25 12:18:26;;;;;;;;;;;;;;;;;;;;;
2022/07/25 12:21:37;;;;;;;7.80;3.90;;;29.50;2.80;;;;;;5018965;28;20478;-81
2022/07/25 12:27:24;;;;;;;10.70;3.10;;;29.60;3.90;;;;;;5016517;28;21051;-81
2022/07/25 12:29:59;;;;;;;6.10;3.10;;;29.50;5.80;;;;;;5018973;28;20439;-81
2022/07/25 12:35:41;;;;;;;11.10;3.40;;;29.50;6.30;;;;;;5019159;28;20452;-81
2022/07/25 12:41:11;;;;;;;7.53;3.80;;;30.50;3.30;;;;;;5016459;28;20428;-81
2022/07/25 12:46:59;;;;;;;6.87;3.60;;;30.30;3.90;;;;;;4987119;28;20428;-80
2022/07/25 12:49:38;;;;;;;6.23;3.23;;;30.10;3.10;;;;;;5018568;28;20559;-81
2022/07/25 12:52:12;;;;;;;10.80;3.30;;;30.00;3.00;;;;;;5098211;23;20884;-80
2022/07/25 12:55:02;;;;;;;6.83;2.70;;;29.80;5.30;;;;;;5016012;28;20423;-80
2022/07/25 12:58:06;;;;;;;9.70;3.47;;;30.10;4.70;;;;;;5014474;28;20452;-80
2022/07/25 13:03:37;;;;;;;6.67;3.00;;;29.80;6.30;;;;;;5015474;28;20972;-81
2022/07/25 13:06:22;;;;;;;5.30;2.20;;;30.20;3.10;;;;;;5017444;28;20452;-81
2022/07/25 13:11:53;;;;;;;5.13;2.50;;;30.20;5.50;;;;;;5012001;28;20496;-81
2022/07/25 13:14:42;;;;;;;7.70;2.50;;;30.30;5.30;;;;;;5016373;28;20522;-82
2022/07/25 13:17:25;;;;;;;11.77;2.50;;;29.90;3.10;;;;;;5016354;28;20568;-81
2022/07/25 13:19:55;;;;;;;7.47;3.17;;;30.40;6.30;;;;;;5018151;28;20851;-81
2022/07/25 13:25:35;;;;;;;7.47;2.80;;;31.00;1.00;;;;;;5014672;28;20194;-81
2022/07/25 13:28:19;;;;;;;8.47;5.07;;;30.90;3.50;;;;;;5017009;28;20431;-85
2022/07/25 13:30:46;;;;;;;6.73;2.60;;;30.10;3.00;;;;;;5028912;28;20459;-80
2022/07/25 13:33:13;;;;;;;254.43;230.73;;;29.40;4.00;;;;;;5029738;28;20454;-84
2022/07/25 13:35:40;;;;;;;229.83;208.43;;;30.60;1.00;;;;;;5028047;28;20416;-80
2022/07/25 13:38:09;;;;;;;279.60;229.33;;;30.70;1.00;;;;;;5028447;28;20481;-80
2022/07/25 13:40:40;;;;;;;83.07;75.57;;;31.30;1.00;;;;;;5031251;28;20427;-79
2022/07/25 13:43:08;;;;;;;487.20;61.97;;;31.20;1.00;;;;;;5031107;28;20452;-80
2022/07/25 13:45:35;;;;;;;278.00;76.27;;;30.10;1.00;;;;;;5031206;28;20464;-81
2022/07/25 13:48:02;;;;;;;1895.53;352.73;;;30.00;2.70;;;;;;5029848;28;20433;-80
2022/07/25 13:50:29;;;;;;;226.67;23.33;;;29.60;2.00;;;;;;5028051;28;20206;-81
2022/07/25 13:52:58;;;;;;;336.10;48.90;;;29.00;2.40;;;;;;5028551;28;20495;-80
2022/07/25 13:55:24;;;;;;;1999.90;655.00;;;29.00;2.40;;;;;;5028554;28;20424;-80
2022/07/25 13:57:51;;;;;;;1999.90;484.53;;;29.30;2.60;;;;;;5031694;28;20468;-80
2022/07/25 14:00:20;;;;;;;103.63;17.83;;;29.80;1.70;;;;;;5028271;28;20460;-80
2022/07/25 14:02:46;;;;;;;13.20;4.47;;;30.10;1.00;;;;;;5027685;28;20483;-82
2022/07/25 14:05:13;;;;;;;98.23;4.73;;;30.90;1.00;;;;;;5028160;28;20453;-82